Time;durP1;ratioP1;P1;durP2;ratioP2;P2;SDS_P1;SDS_P2;PMS_P1;PMS_P2;Temp;Humidity;BMP_temperature;BMP_pressure;BME280_temperature;BME280_humidity;BME280_pressure;Samples;Min_cycle;Max_cycle;Signal;HPM_P1;HPM_P2
2023/12/24 00:01:06;;;;;;;126.97;71.45;;;;;;;;;;5029257;28;20032;-72
2023/12/24 00:03:32;;;;;;;119.20;70.82;;;;;;;;;;5025500;28;20527;-73
2023/12/24 00:05:58;;;;;;;119.03;71.75;;;;;;;;;;5028280;28;20040;-72
2023/12/24 00:08:24;;;;;;;113.15;68.28;;;;;;;;;;5029722;28;20022;-72
2023/12/24 00:10:50;;;;;;;121.95;70.90;;;;;;;;;;5029079;28;20029;-71
2023/12/24 00:13:16;;;;;;;118.22;68.82;;;;;;;;;;5028135;28;20497;-71
2023/12/24 00:15:42;;;;;;;117.60;68.78;;;;;;;;;;5027964;28;20040;-72
2023/12/24 00:18:08;;;;;;;109.47;66.18;;;;;;;;;;5029626;28;20045;-72
2023/12/24 00:20:34;;;;;;;116.20;69.32;;;;;;;;;;5029374;28;20022;-72
2023/12/24 00:23:04;;;;;;;111.50;67.82;;;;;;;;;;5028168;28;20021;-72
2023/12/24 00:25:30;;;;;;;111.13;66.40;;;;;;;;;;5028178;28;20021;-70
2023/12/24 00:27:58;;;;;;;108.15;63.65;;;;;;;;;;5029676;28;20116;-70
2023/12/24 00:30:26;;;;;;;105.93;62.70;;;;;;;;;;5029321;28;20018;-71
2023/12/24 00:32:53;;;;;;;105.05;63.10;;;;;;;;;;5029139;28;20075;-70
2023/12/24 00:35:19;;;;;;;104.45;62.45;;;;;;;;;;5029253;28;20328;-71
2023/12/24 00:37:45;;;;;;;108.38;61.85;;;;;;;;;;5029211;28;20057;-71
2023/12/24 00:40:11;;;;;;;104.85;61.90;;;;;;;;;;5029064;28;20049;-70
2023/12/24 00:42:39;;;;;;;103.47;62.45;;;;;;;;;;5029078;28;20107;-72
2023/12/24 00:45:05;;;;;;;109.45;61.75;;;;;;;;;;5029264;28;20402;-74
2023/12/24 00:47:31;;;;;;;101.40;61.55;;;;;;;;;;5029493;28;20025;-70
2023/12/24 00:49:57;;;;;;;109.80;61.88;;;;;;;;;;5028815;28;20021;-69
2023/12/24 00:52:23;;;;;;;100.82;59.35;;;;;;;;;;5029257;28;20345;-70
2023/12/24 00:54:49;;;;;;;95.30;56.97;;;;;;;;;;5028944;28;20164;-70
2023/12/24 00:57:15;;;;;;;104.85;58.83;;;;;;;;;;5029467;28;20033;-72
2023/12/24 00:59:41;;;;;;;99.70;58.03;;;;;;;;;;5027683;28;20034;-73
2023/12/24 01:02:07;;;;;;;96.07;58.67;;;;;;;;;;5029346;28;20132;-71
2023/12/24 01:04:33;;;;;;;94.22;56.25;;;;;;;;;;5029167;28;20044;-73
2023/12/24 01:06:59;;;;;;;102.50;56.42;;;;;;;;;;5029476;28;20438;-72
2023/12/24 01:09:25;;;;;;;95.65;55.15;;;;;;;;;;5029041;28;20045;-71
2023/12/24 01:11:52;;;;;;;94.05;56.58;;;;;;;;;;5031479;28;20381;-72
2023/12/24 01:14:18;;;;;;;93.40;54.75;;;;;;;;;;5032418;28;20144;-72
2023/12/24 01:16:44;;;;;;;95.57;55.58;;;;;;;;;;5032534;28;20489;-70
2023/12/24 01:19:10;;;;;;;94.00;53.47;;;;;;;;;;5032649;28;20159;-72
2023/12/24 01:21:36;;;;;;;94.82;53.40;;;;;;;;;;5032631;28;20014;-72
2023/12/24 01:24:02;;;;;;;92.82;54.05;;;;;;;;;;5032186;28;20120;-72
2023/12/24 01:26:28;;;;;;;92.88;53.92;;;;;;;;;;5032614;28;20017;-72
2023/12/24 01:28:54;;;;;;;87.53;53.45;;;;;;;;;;5032702;28;20117;-72
2023/12/24 01:31:20;;;;;;;90.60;52.72;;;;;;;;;;5032417;28;20120;-71
2023/12/24 01:33:46;;;;;;;89.68;52.85;;;;;;;;;;5032346;28;20131;-69
2023/12/24 01:36:12;;;;;;;87.13;53.25;;;;;;;;;;5032498;28;20063;-69
2023/12/24 01:38:38;;;;;;;87.60;51.05;;;;;;;;;;5032437;28;20049;-70
2023/12/24 01:41:04;;;;;;;83.45;49.42;;;;;;;;;;5030593;28;20504;-71
2023/12/24 01:43:30;;;;;;;85.97;50.88;;;;;;;;;;5032291;28;20021;-69
2023/12/24 01:45:56;;;;;;;84.93;50.53;;;;;;;;;;5031803;28;20032;-70
2023/12/24 01:48:22;;;;;;;86.53;49.30;;;;;;;;;;5032304;28;20025;-72
2023/12/24 01:50:49;;;;;;;86.18;47.97;;;;;;;;;;5031972;28;20079;-69
2023/12/24 01:53:17;;;;;;;88.57;47.95;;;;;;;;;;5031747;28;20026;-70
2023/12/24 01:55:43;;;;;;;88.22;48.53;;;;;;;;;;5032093;28;20094;-69
2023/12/24 01:58:09;;;;;;;85.55;46.70;;;;;;;;;;5032129;28;20032;-70
2023/12/24 02:00:35;;;;;;;77.70;46.55;;;;;;;;;;5032035;28;20024;-71
2023/12/24 02:03:03;;;;;;;79.20;47.17;;;;;;;;;;5031827;28;20029;-71
2023/12/24 02:05:29;;;;;;;75.78;43.65;;;;;;;;;;5031968;28;20532;-70
2023/12/24 02:07:56;;;;;;;80.88;47.08;;;;;;;;;;5031516;28;20506;-68
2023/12/24 02:10:23;;;;;;;74.70;44.70;;;;;;;;;;5031484;28;20083;-71
2023/12/24 02:12:49;;;;;;;80.07;45.17;;;;;;;;;;5031765;28;20401;-71
2023/12/24 02:15:16;;;;;;;74.75;45.58;;;;;;;;;;5031422;28;20025;-72
2023/12/24 02:17:43;;;;;;;77.88;46.58;;;;;;;;;;5031855;28;20456;-72
2023/12/24 02:20:10;;;;;;;75.70;44.25;;;;;;;;;;5031656;28;20017;-71
2023/12/24 02:22:36;;;;;;;71.88;44.00;;;;;;;;;;5030676;28;20020;-72
2023/12/24 02:25:02;;;;;;;67.13;40.72;;;;;;;;;;5031317;28;20068;-72
2023/12/24 02:27:28;;;;;;;77.68;44.08;;;;;;;;;;5031739;28;20094;-71
2023/12/24 02:29:56;;;;;;;71.78;43.80;;;;;;;;;;5029862;28;20506;-71
2023/12/24 02:32:23;;;;;;;72.47;42.80;;;;;;;;;;5031417;28;20021;-71
2023/12/24 02:34:49;;;;;;;70.88;43.10;;;;;;;;;;5031485;28;20036;-72
2023/12/24 02:37:15;;;;;;;74.38;41.55;;;;;;;;;;5036140;28;20040;-72
2023/12/24 02:39:42;;;;;;;71.45;41.35;;;;;;;;;;5040420;28;20119;-72
2023/12/24 02:42:09;;;;;;;62.47;39.05;;;;;;;;;;5038501;28;20018;-71
2023/12/24 02:44:38;;;;;;;71.80;40.05;;;;;;;;;;5037175;28;20049;-68
2023/12/24 02:47:05;;;;;;;72.15;40.22;;;;;;;;;;5033383;28;20018;-71
2023/12/24 02:49:31;;;;;;;67.47;40.55;;;;;;;;;;5037100;28;20060;-72
2023/12/24 02:51:57;;;;;;;69.53;39.40;;;;;;;;;;5031249;28;20025;-68
2023/12/24 02:54:23;;;;;;;67.38;38.35;;;;;;;;;;5022445;28;20036;-71
2023/12/24 02:56:48;;;;;;;65.47;39.40;;;;;;;;;;5030791;28;20048;-70
2023/12/24 02:59:14;;;;;;;66.93;39.15;;;;;;;;;;5025593;28;20436;-71
2023/12/24 03:01:40;;;;;;;66.40;39.33;;;;;;;;;;5030831;28;20029;-70
2023/12/24 03:04:06;;;;;;;63.60;37.50;;;;;;;;;;5030812;28;20382;-71
2023/12/24 03:06:33;;;;;;;72.22;37.75;;;;;;;;;;5030828;28;20106;-71
2023/12/24 03:08:59;;;;;;;64.60;37.47;;;;;;;;;;5030468;28;20040;-71
2023/12/24 03:11:26;;;;;;;61.22;35.88;;;;;;;;;;5030277;28;20033;-69
2023/12/24 03:13:52;;;;;;;51.22;26.52;;;;;;;;;;5029894;28;20037;-69
2023/12/24 03:16:18;;;;;;;40.33;22.45;;;;;;;;;;5030154;28;20032;-67
2023/12/24 03:18:44;;;;;;;35.10;19.73;;;;;;;;;;5029825;28;20022;-69
2023/12/24 03:21:10;;;;;;;26.85;15.70;;;;;;;;;;5029548;28;20451;-68
2023/12/24 03:23:36;;;;;;;27.60;14.95;;;;;;;;;;5029909;28;20052;-69
2023/12/24 03:26:02;;;;;;;24.55;14.18;;;;;;;;;;5029571;28;20454;-69
2023/12/24 03:28:28;;;;;;;21.40;13.15;;;;;;;;;;5029702;28;20047;-68
2023/12/24 03:30:54;;;;;;;19.02;10.50;;;;;;;;;;5029695;28;20436;-69
2023/12/24 03:33:20;;;;;;;17.00;10.23;;;;;;;;;;5029427;28;20021;-68
2023/12/24 03:35:46;;;;;;;12.45;7.80;;;;;;;;;;5029651;28;20028;-68
2023/12/24 03:38:12;;;;;;;14.70;7.47;;;;;;;;;;5029933;28;20410;-67
2023/12/24 03:40:38;;;;;;;11.73;7.35;;;;;;;;;;5029384;28;20018;-67
2023/12/24 03:43:04;;;;;;;14.75;7.80;;;;;;;;;;5029650;28;20064;-68
2023/12/24 03:45:32;;;;;;;11.63;6.63;;;;;;;;;;5029701;28;20072;-69
2023/12/24 03:47:58;;;;;;;11.05;5.68;;;;;;;;;;5028200;28;20105;-68
2023/12/24 03:50:24;;;;;;;10.70;6.18;;;;;;;;;;5029555;28;20108;-68
2023/12/24 03:52:50;;;;;;;11.02;6.57;;;;;;;;;;5029246;28;20375;-68
2023/12/24 03:55:16;;;;;;;9.45;6.07;;;;;;;;;;5029387;28;20101;-67
2023/12/24 03:57:42;;;;;;;9.30;5.15;;;;;;;;;;5029276;28;20371;-69
2023/12/24 04:00:08;;;;;;;10.23;5.20;;;;;;;;;;5029195;28;20024;-69
2023/12/24 04:02:34;;;;;;;6.45;4.45;;;;;;;;;;5032947;28;20021;-70
2023/12/24 04:05:00;;;;;;;6.35;3.92;;;;;;;;;;5030503;28;20119;-69
2023/12/24 04:07:26;;;;;;;8.43;4.35;;;;;;;;;;5029346;28;20025;-69
2023/12/24 04:09:52;;;;;;;7.63;4.53;;;;;;;;;;5029040;28;20025;-68
2023/12/24 04:12:18;;;;;;;8.13;4.00;;;;;;;;;;5029164;28;20024;-68
2023/12/24 04:14:44;;;;;;;7.35;4.40;;;;;;;;;;5028935;28;20457;-67
2023/12/24 04:17:10;;;;;;;7.63;4.68;;;;;;;;;;5029154;28;20048;-67
2023/12/24 04:19:36;;;;;;;7.30;4.05;;;;;;;;;;5028968;28;20048;-67
2023/12/24 04:22:02;;;;;;;6.18;3.65;;;;;;;;;;5028925;28;20355;-67
2023/12/24 04:24:29;;;;;;;6.25;3.50;;;;;;;;;;5029175;28;20070;-68
2023/12/24 04:26:55;;;;;;;6.60;3.53;;;;;;;;;;5029422;28;20021;-68
2023/12/24 04:29:21;;;;;;;7.07;3.72;;;;;;;;;;5029047;28;20025;-67
2023/12/24 04:31:47;;;;;;;6.47;4.13;;;;;;;;;;5028841;28;20156;-68
2023/12/24 04:34:13;;;;;;;6.95;3.50;;;;;;;;;;5028730;28;20025;-68
2023/12/24 04:36:39;;;;;;;6.88;3.50;;;;;;;;;;5027444;28;20122;-68
2023/12/24 04:39:05;;;;;;;6.50;3.20;;;;;;;;;;5028749;28;20037;-68
2023/12/24 04:41:31;;;;;;;6.43;3.63;;;;;;;;;;5028735;28;20099;-68
2023/12/24 04:43:57;;;;;;;4.82;3.28;;;;;;;;;;5028803;28;20021;-67
2023/12/24 04:46:23;;;;;;;7.35;3.45;;;;;;;;;;5030456;28;20028;-67
2023/12/24 04:48:49;;;;;;;8.43;3.60;;;;;;;;;;5032449;28;20025;-67
2023/12/24 04:51:15;;;;;;;4.93;2.95;;;;;;;;;;5032404;28;20090;-68
2023/12/24 04:53:41;;;;;;;4.88;3.08;;;;;;;;;;5032789;28;20064;-68
2023/12/24 04:56:18;;;;;;;5.05;3.15;;;;;;;;;;5029559;28;20029;-68
2023/12/24 04:58:44;;;;;;;4.95;2.85;;;;;;;;;;5032468;28;20026;-68
2023/12/24 05:01:10;;;;;;;4.05;2.45;;;;;;;;;;5032474;28;20382;-68
2023/12/24 05:03:36;;;;;;;11.73;2.72;;;;;;;;;;5031981;28;20060;-68
2023/12/24 05:06:02;;;;;;;4.65;2.78;;;;;;;;;;5031746;28;20033;-68
2023/12/24 05:08:28;;;;;;;9.00;3.85;;;;;;;;;;5032269;28;20452;-71
2023/12/24 05:10:54;;;;;;;9.73;4.40;;;;;;;;;;5031691;28;20121;-71
2023/12/24 05:13:20;;;;;;;10.60;4.32;;;;;;;;;;5032444;28;20039;-71
2023/12/24 05:15:46;;;;;;;7.90;4.50;;;;;;;;;;5032496;28;20542;-69
2023/12/24 05:18:12;;;;;;;10.20;4.07;;;;;;;;;;5031996;28;20021;-69
2023/12/24 05:20:38;;;;;;;8.32;4.53;;;;;;;;;;5030522;28;20036;-70
2023/12/24 05:23:04;;;;;;;7.70;4.00;;;;;;;;;;5030671;28;20112;-69
2023/12/24 05:25:30;;;;;;;14.20;4.22;;;;;;;;;;5032307;28;20022;-70
2023/12/24 05:27:56;;;;;;;8.98;4.72;;;;;;;;;;5033910;28;20045;-71
2023/12/24 05:30:22;;;;;;;9.95;5.00;;;;;;;;;;5033145;28;20466;-70
2023/12/24 05:32:48;;;;;;;10.38;5.03;;;;;;;;;;5032335;28;20033;-72
2023/12/24 05:35:14;;;;;;;7.50;4.68;;;;;;;;;;5031770;28;20017;-72
2023/12/24 05:37:40;;;;;;;11.80;4.57;;;;;;;;;;5030221;28;20113;-71
2023/12/24 05:40:06;;;;;;;7.78;4.28;;;;;;;;;;5030036;28;20021;-71
2023/12/24 05:42:32;;;;;;;8.75;4.97;;;;;;;;;;5031747;28;20129;-71
2023/12/24 05:44:58;;;;;;;7.72;4.63;;;;;;;;;;5031473;28;20144;-73
2023/12/24 05:47:24;;;;;;;12.32;4.82;;;;;;;;;;5031485;28;20194;-72
2023/12/24 05:49:50;;;;;;;9.13;4.93;;;;;;;;;;5031312;28;20052;-70
2023/12/24 05:52:16;;;;;;;10.10;4.50;;;;;;;;;;5031469;28;20033;-72
2023/12/24 05:54:42;;;;;;;8.75;4.68;;;;;;;;;;5029727;28;20458;-69
2023/12/24 05:57:08;;;;;;;10.85;4.72;;;;;;;;;;5031331;28;20025;-71
2023/12/24 05:59:34;;;;;;;7.82;4.57;;;;;;;;;;5031006;28;20063;-72
2023/12/24 06:02:02;;;;;;;8.45;4.18;;;;;;;;;;5031310;28;20045;-70
2023/12/24 06:04:28;;;;;;;13.70;5.65;;;;;;;;;;5031132;28;20063;-71
2023/12/24 06:06:54;;;;;;;7.10;4.30;;;;;;;;;;5031611;28;20394;-72
2023/12/24 06:09:20;;;;;;;7.47;4.20;;;;;;;;;;5030606;28;20155;-72
2023/12/24 06:11:45;;;;;;;8.50;4.75;;;;;;;;;;5030986;28;20455;-70
2023/12/24 06:14:11;;;;;;;7.22;4.57;;;;;;;;;;5029405;28;20032;-72
2023/12/24 06:16:37;;;;;;;6.93;4.30;;;;;;;;;;5031012;28;20108;-71
2023/12/24 06:19:03;;;;;;;8.77;4.28;;;;;;;;;;5030922;28;20451;-71
2023/12/24 06:21:29;;;;;;;8.43;4.78;;;;;;;;;;5030712;28;20108;-71
2023/12/24 06:23:56;;;;;;;7.78;4.40;;;;;;;;;;5030676;28;20108;-71
2023/12/24 06:26:22;;;;;;;7.28;4.75;;;;;;;;;;5029400;28;20048;-71
2023/12/24 06:28:47;;;;;;;6.82;4.40;;;;;;;;;;5027769;28;20025;-71
2023/12/24 06:31:20;;;;;;;12.77;5.95;;;;;;;;;;5025808;28;20025;-72
2023/12/24 06:33:46;;;;;;;11.07;6.10;;;;;;;;;;5029057;28;20017;-71
2023/12/24 06:36:12;;;;;;;10.02;5.78;;;;;;;;;;5027806;28;20055;-71
2023/12/24 06:38:38;;;;;;;10.38;6.05;;;;;;;;;;5030477;28;20049;-71
2023/12/24 06:41:04;;;;;;;18.52;6.47;;;;;;;;;;5030492;28;20532;-71
2023/12/24 06:43:30;;;;;;;27.48;6.72;;;;;;;;;;5030657;28;20022;-70
2023/12/24 06:45:56;;;;;;;11.38;6.22;;;;;;;;;;5030119;28;20489;-70
2023/12/24 06:48:22;;;;;;;13.52;6.50;;;;;;;;;;5026546;28;20029;-69
2023/12/24 06:50:48;;;;;;;11.23;6.80;;;;;;;;;;5029229;28;20038;-69
2023/12/24 06:53:14;;;;;;;13.80;6.90;;;;;;;;;;5026858;28;20021;-71
2023/12/24 06:55:40;;;;;;;15.65;6.85;;;;;;;;;;5023675;28;20021;-70
2023/12/24 06:58:06;;;;;;;13.60;6.72;;;;;;;;;;5029799;28;20017;-71
2023/12/24 07:00:33;;;;;;;13.93;7.18;;;;;;;;;;5030020;28;20013;-70
2023/12/24 07:02:59;;;;;;;12.45;6.85;;;;;;;;;;5027227;28;20021;-70
2023/12/24 07:05:25;;;;;;;14.43;6.55;;;;;;;;;;5025876;28;20034;-70
2023/12/24 07:07:51;;;;;;;11.82;6.43;;;;;;;;;;5026984;28;20116;-70
2023/12/24 07:10:17;;;;;;;12.15;6.82;;;;;;;;;;5029420;28;20372;-69
2023/12/24 07:12:43;;;;;;;17.25;6.03;;;;;;;;;;5029119;28;20085;-69
2023/12/24 07:15:09;;;;;;;13.68;5.88;;;;;;;;;;5029797;28;20026;-70
2023/12/24 07:17:35;;;;;;;9.38;5.30;;;;;;;;;;5029790;28;20102;-71
2023/12/24 07:20:01;;;;;;;10.30;5.70;;;;;;;;;;5029561;28;20474;-70
2023/12/24 07:22:27;;;;;;;12.98;6.72;;;;;;;;;;5029836;28;20049;-70
2023/12/24 07:24:53;;;;;;;9.05;5.38;;;;;;;;;;5029224;28;20026;-69
2023/12/24 07:27:21;;;;;;;11.20;5.53;;;;;;;;;;5027523;28;20406;-69
2023/12/24 07:29:47;;;;;;;15.82;5.93;;;;;;;;;;5031167;28;20100;-68
2023/12/24 07:32:13;;;;;;;10.85;5.70;;;;;;;;;;5028336;28;20057;-69
2023/12/24 07:34:39;;;;;;;8.90;5.65;;;;;;;;;;5031382;28;20029;-69
2023/12/24 07:37:05;;;;;;;9.50;5.68;;;;;;;;;;5027265;28;21105;-68
2023/12/24 07:39:31;;;;;;;9.60;5.45;;;;;;;;;;5026789;28;20018;-69
2023/12/24 07:41:57;;;;;;;10.15;5.70;;;;;;;;;;5029464;28;20025;-70
2023/12/24 07:44:23;;;;;;;7.93;5.00;;;;;;;;;;5031238;28;20025;-69
2023/12/24 07:46:49;;;;;;;9.45;4.90;;;;;;;;;;5030868;28;20028;-67
2023/12/24 07:49:15;;;;;;;9.88;5.10;;;;;;;;;;5030995;28;20482;-66
2023/12/24 07:51:41;;;;;;;12.07;5.50;;;;;;;;;;5031213;28;20033;-68
2023/12/24 07:54:07;;;;;;;8.73;5.15;;;;;;;;;;5030989;28;20108;-69
2023/12/24 07:56:33;;;;;;;10.00;5.88;;;;;;;;;;5031368;28;20561;-68
2023/12/24 07:58:59;;;;;;;8.13;4.65;;;;;;;;;;5030928;28;20108;-69
2023/12/24 08:01:25;;;;;;;7.60;4.55;;;;;;;;;;5024332;28;20084;-69
2023/12/24 08:03:51;;;;;;;7.00;4.80;;;;;;;;;;5043738;28;20021;-68
2023/12/24 08:06:19;;;;;;;9.30;4.50;;;;;;;;;;5031014;28;20072;-67
2023/12/24 08:08:45;;;;;;;8.95;4.40;;;;;;;;;;5030907;28;20504;-68
2023/12/24 08:11:12;;;;;;;6.80;4.25;;;;;;;;;;5029494;28;20465;-70
2023/12/24 08:13:38;;;;;;;11.85;4.63;;;;;;;;;;5031091;28;20556;-69
2023/12/24 08:16:04;;;;;;;9.30;4.90;;;;;;;;;;5030446;28;20742;-68
2023/12/24 08:18:30;;;;;;;13.32;4.82;;;;;;;;;;5029582;28;20025;-69
2023/12/24 08:20:55;;;;;;;7.60;4.90;;;;;;;;;;5031548;28;20045;-71
2023/12/24 08:23:21;;;;;;;6.70;4.43;;;;;;;;;;5034971;28;20029;-70
2023/12/24 08:25:47;;;;;;;7.70;4.90;;;;;;;;;;5034854;28;20025;-70
2023/12/24 08:28:13;;;;;;;7.80;4.53;;;;;;;;;;5033665;28;20413;-69
2023/12/24 08:30:39;;;;;;;6.95;4.40;;;;;;;;;;5033154;28;20104;-69
2023/12/24 08:33:06;;;;;;;8.55;4.60;;;;;;;;;;5034829;28;20033;-70
2023/12/24 08:35:32;;;;;;;9.35;4.43;;;;;;;;;;5034832;28;20462;-69
2023/12/24 08:37:58;;;;;;;6.60;4.30;;;;;;;;;;5033340;28;20497;-70
2023/12/24 08:40:27;;;;;;;6.85;4.25;;;;;;;;;;5033282;28;20018;-69
2023/12/24 08:42:53;;;;;;;7.05;4.55;;;;;;;;;;5031880;28;20167;-69
2023/12/24 08:45:19;;;;;;;9.02;4.78;;;;;;;;;;5034803;28;20017;-69
2023/12/24 08:47:45;;;;;;;7.25;3.60;;;;;;;;;;5034124;28;20032;-69
2023/12/24 08:50:11;;;;;;;7.95;4.78;;;;;;;;;;5033823;28;20029;-69
2023/12/24 08:52:37;;;;;;;6.90;4.32;;;;;;;;;;5034785;28;20048;-69
2023/12/24 08:55:05;;;;;;;7.22;4.35;;;;;;;;;;5034412;28;20017;-69
2023/12/24 08:57:31;;;;;;;29.88;4.20;;;;;;;;;;5032537;28;20029;-65
2023/12/24 08:59:57;;;;;;;4.53;2.17;;;;;;;;;;5032399;28;20028;-67
2023/12/24 09:02:23;;;;;;;9.40;1.80;;;;;;;;;;5026835;28;20025;-67
2023/12/24 09:04:49;;;;;;;4.63;1.35;;;;;;;;;;5032134;28;20044;-66
2023/12/24 09:07:18;;;;;;;1.98;1.55;;;;;;;;;;5032839;28;20021;-67
2023/12/24 09:09:44;;;;;;;5.43;1.35;;;;;;;;;;5028531;28;20021;-70
2023/12/24 09:12:10;;;;;;;9.63;2.40;;;;;;;;;;5033787;28;20060;-71
2023/12/24 09:14:36;;;;;;;2.15;0.77;;;;;;;;;;5033627;28;20029;-67
2023/12/24 09:17:02;;;;;;;0.55;0.38;;;;;;;;;;5033875;28;20494;-66
2023/12/24 09:19:28;;;;;;;0.80;0.40;;;;;;;;;;5033701;28;20022;-67
2023/12/24 09:21:55;;;;;;;2.10;0.68;;;;;;;;;;5033784;28;20429;-65
2023/12/24 09:24:21;;;;;;;0.57;0.40;;;;;;;;;;5033630;28;20021;-70
2023/12/24 09:26:47;;;;;;;7.93;1.25;;;;;;;;;;5033669;28;20087;-67
2023/12/24 09:29:13;;;;;;;8.43;0.73;;;;;;;;;;5033710;28;20018;-69
2023/12/24 09:31:39;;;;;;;1.08;0.38;;;;;;;;;;5033115;28;20025;-68
2023/12/24 09:34:06;;;;;;;5.03;0.85;;;;;;;;;;5033581;28;20030;-65
2023/12/24 09:36:31;;;;;;;3.22;0.50;;;;;;;;;;5033509;28;20028;-66
2023/12/24 09:38:57;;;;;;;4.50;0.85;;;;;;;;;;5033571;28;20490;-67
2023/12/24 09:41:23;;;;;;;12.60;0.82;;;;;;;;;;5033428;28;20071;-66
2023/12/24 09:43:50;;;;;;;8.15;1.63;;;;;;;;;;5033508;28;20033;-66
2023/12/24 09:46:16;;;;;;;5.75;0.93;;;;;;;;;;5033227;28;20040;-65
2023/12/24 09:48:42;;;;;;;2.05;0.70;;;;;;;;;;5033027;28;20483;-65
2023/12/24 09:51:08;;;;;;;2.13;1.00;;;;;;;;;;5033117;28;20414;-68
2023/12/24 09:53:34;;;;;;;2.13;1.13;;;;;;;;;;5033731;28;20387;-68
2023/12/24 09:56:00;;;;;;;3.10;0.90;;;;;;;;;;5033287;28;20029;-68
2023/12/24 09:58:26;;;;;;;4.13;0.90;;;;;;;;;;5033430;28;20025;-68
2023/12/24 10:00:52;;;;;;;2.95;0.88;;;;;;;;;;5032749;28;20030;-68
2023/12/24 10:03:18;;;;;;;2.85;1.05;;;;;;;;;;5032984;28;20036;-69
2023/12/24 10:06:03;;;;;;;6.78;1.35;;;;;;;;;;5031983;28;20017;-68
2023/12/24 10:08:30;;;;;;;5.50;1.15;;;;;;;;;;5028757;28;20029;-68
2023/12/24 10:10:56;;;;;;;5.10;1.55;;;;;;;;;;5032483;28;20060;-68
2023/12/24 10:13:22;;;;;;;11.13;2.03;;;;;;;;;;5032955;28;20025;-68
2023/12/24 10:16:05;;;;;;;16.98;1.98;;;;;;;;;;5032487;28;20371;-69
2023/12/24 10:18:31;;;;;;;19.65;2.22;;;;;;;;;;5033193;28;20041;-68
2023/12/24 10:21:07;;;;;;;17.30;2.22;;;;;;;;;;5032901;28;20041;-68
2023/12/24 10:23:33;;;;;;;17.98;1.90;;;;;;;;;;5032160;28;20037;-69
2023/12/24 10:26:08;;;;;;;22.40;2.63;;;;;;;;;;5031334;28;20048;-66
2023/12/24 10:28:35;;;;;;;15.52;2.50;;;;;;;;;;5032880;28;20029;-67
2023/12/24 10:31:08;;;;;;;11.52;1.60;;;;;;;;;;5032477;28;20112;-67
2023/12/24 10:33:34;;;;;;;7.15;1.98;;;;;;;;;;5031683;28;20029;-66
2023/12/24 10:36:00;;;;;;;10.07;2.20;;;;;;;;;;5032028;28;20071;-66
2023/12/24 10:38:30;;;;;;;8.23;1.90;;;;;;;;;;5032611;28;20488;-66
2023/12/24 10:40:56;;;;;;;10.75;1.77;;;;;;;;;;5031094;28;20048;-66
2023/12/24 10:43:22;;;;;;;6.10;1.05;;;;;;;;;;5030483;28;20065;-66
2023/12/24 10:45:48;;;;;;;8.70;1.55;;;;;;;;;;5032008;28;20739;-66
2023/12/24 10:48:14;;;;;;;5.65;1.35;;;;;;;;;;5030542;28;20638;-66
2023/12/24 10:50:41;;;;;;;8.02;1.27;;;;;;;;;;5031819;28;20113;-66
2023/12/24 10:53:07;;;;;;;5.90;1.42;;;;;;;;;;5031151;28;20514;-67
2023/12/24 10:55:34;;;;;;;4.78;1.17;;;;;;;;;;5030482;28;20021;-65
2023/12/24 10:58:06;;;;;;;8.40;1.30;;;;;;;;;;5031733;28;20022;-66
2023/12/24 11:00:32;;;;;;;6.15;1.50;;;;;;;;;;5027227;28;20025;-66
2023/12/24 11:02:59;;;;;;;4.82;1.35;;;;;;;;;;5031633;28;20032;-66
2023/12/24 11:05:40;;;;;;;4.07;1.25;;;;;;;;;;5032042;28;20394;-66
2023/12/24 11:08:06;;;;;;;2.33;1.13;;;;;;;;;;5031776;28;20025;-65
2023/12/24 11:10:43;;;;;;;4.38;1.30;;;;;;;;;;5031700;28;20037;-65
2023/12/24 11:13:09;;;;;;;8.25;1.75;;;;;;;;;;5031367;28;20051;-66
2023/12/24 11:15:44;;;;;;;4.22;1.25;;;;;;;;;;5031609;28;20524;-66
2023/12/24 11:18:11;;;;;;;6.85;1.15;;;;;;;;;;5028670;28;20017;-65
2023/12/24 11:20:41;;;;;;;4.75;1.30;;;;;;;;;;5031213;28;20057;-64
2023/12/24 11:23:11;;;;;;;5.40;1.40;;;;;;;;;;5031740;28;20036;-66
2023/12/24 11:25:37;;;;;;;9.80;1.52;;;;;;;;;;5032514;28;20039;-65
2023/12/24 11:28:09;;;;;;;6.32;1.33;;;;;;;;;;5029992;28;20052;-65
2023/12/24 11:30:50;;;;;;;6.63;1.63;;;;;;;;;;5031648;28;20075;-65
2023/12/24 11:33:29;;;;;;;11.88;1.65;;;;;;;;;;5023840;28;20057;-65
2023/12/24 11:35:55;;;;;;;4.60;1.42;;;;;;;;;;5031295;28;20021;-66
2023/12/24 11:38:36;;;;;;;4.78;1.30;;;;;;;;;;5031595;28;20025;-65
2023/12/24 11:41:08;;;;;;;4.72;1.15;;;;;;;;;;5031086;28;20097;-65
2023/12/24 11:43:37;;;;;;;5.32;1.70;;;;;;;;;;5031083;28;20057;-66
2023/12/24 11:46:03;;;;;;;3.53;1.20;;;;;;;;;;5031089;28;20532;-65
2023/12/24 11:48:30;;;;;;;5.78;1.50;;;;;;;;;;5031058;28;20025;-66
2023/12/24 11:51:03;;;;;;;9.32;1.67;;;;;;;;;;5031142;28;20029;-65
2023/12/24 11:53:32;;;;;;;8.77;1.48;;;;;;;;;;5031349;28;20390;-66
2023/12/24 11:56:15;;;;;;;10.25;1.55;;;;;;;;;;5030893;28;20101;-65
2023/12/24 11:58:50;;;;;;;4.85;1.30;;;;;;;;;;5030883;28;20102;-66
2023/12/24 12:01:24;;;;;;;6.00;1.52;;;;;;;;;;5031003;28;20028;-66
2023/12/24 12:03:55;;;;;;;5.65;0.93;;;;;;;;;;5030814;28;20068;-65
2023/12/24 12:06:21;;;;;;;5.43;0.82;;;;;;;;;;5031075;28;20479;-65
2023/12/24 12:08:50;;;;;;;9.50;1.90;;;;;;;;;;5030864;28;20494;-65
2023/12/24 12:11:16;;;;;;;5.93;1.40;;;;;;;;;;5030958;28;20029;-66
2023/12/24 12:13:42;;;;;;;8.20;1.20;;;;;;;;;;5030912;28;20095;-65
2023/12/24 12:16:08;;;;;;;6.35;1.50;;;;;;;;;;5030847;28;20048;-65
2023/12/24 12:18:34;;;;;;;4.35;1.23;;;;;;;;;;5031061;28;20483;-65
2023/12/24 12:21:00;;;;;;;2.45;1.00;;;;;;;;;;5030659;28;20064;-65
2023/12/24 12:23:26;;;;;;;199.80;108.93;;;;;;;;;;5031374;28;20117;-66
2023/12/24 12:25:52;;;;;;;270.92;141.02;;;;;;;;;;5030765;28;20025;-66
2023/12/24 12:28:18;;;;;;;274.55;137.77;;;;;;;;;;5029267;28;20025;-65
2023/12/24 12:30:45;;;;;;;261.42;130.00;;;;;;;;;;5030287;28;20036;-66
2023/12/24 12:33:11;;;;;;;233.95;118.95;;;;;;;;;;5030939;28;20033;-67
2023/12/24 12:35:38;;;;;;;219.05;108.68;;;;;;;;;;5030811;28;20029;-66
2023/12/24 12:38:04;;;;;;;202.07;100.88;;;;;;;;;;5030704;28;20045;-65
2023/12/24 12:40:30;;;;;;;191.93;98.20;;;;;;;;;;5030779;28;20497;-66
2023/12/24 12:42:56;;;;;;;183.15;92.88;;;;;;;;;;5030545;28;20029;-66
2023/12/24 12:45:22;;;;;;;173.32;89.38;;;;;;;;;;5030686;28;20064;-64
2023/12/24 12:47:48;;;;;;;168.23;85.60;;;;;;;;;;5030781;28;20074;-66
2023/12/24 12:50:15;;;;;;;172.27;83.55;;;;;;;;;;5030735;28;20022;-66
2023/12/24 12:52:41;;;;;;;161.38;81.20;;;;;;;;;;5030602;28;20022;-66
2023/12/24 12:55:08;;;;;;;154.35;78.90;;;;;;;;;;5030399;28;20426;-65
2023/12/24 12:57:36;;;;;;;161.93;77.18;;;;;;;;;;5028468;28;20101;-66
2023/12/24 13:00:09;;;;;;;154.82;76.80;;;;;;;;;;5030550;28;20112;-66
2023/12/24 13:02:36;;;;;;;150.45;78.57;;;;;;;;;;5030145;28;20074;-66
2023/12/24 13:05:02;;;;;;;151.20;76.75;;;;;;;;;;5029612;28;20126;-65
2023/12/24 13:07:33;;;;;;;156.15;78.57;;;;;;;;;;5032275;28;20025;-65
2023/12/24 13:10:00;;;;;;;155.98;77.68;;;;;;;;;;5032883;28;20029;-66
2023/12/24 13:12:28;;;;;;;147.25;74.20;;;;;;;;;;5033156;28;20021;-66
2023/12/24 13:14:58;;;;;;;147.75;74.78;;;;;;;;;;5033984;28;20457;-65
2023/12/24 13:17:25;;;;;;;142.05;72.72;;;;;;;;;;5034269;28;20035;-65
2023/12/24 13:19:54;;;;;;;143.82;74.13;;;;;;;;;;5030277;28;20032;-66
2023/12/24 13:22:21;;;;;;;148.93;74.03;;;;;;;;;;5027659;28;20017;-66
2023/12/24 13:24:49;;;;;;;137.40;71.72;;;;;;;;;;5031776;28;20383;-65
2023/12/24 13:27:17;;;;;;;144.00;69.97;;;;;;;;;;5036542;28;20045;-65
2023/12/24 13:29:44;;;;;;;140.40;71.72;;;;;;;;;;5035502;28;20013;-65
2023/12/24 13:32:10;;;;;;;135.68;69.00;;;;;;;;;;5033370;28;20174;-66
2023/12/24 13:34:36;;;;;;;128.52;65.68;;;;;;;;;;5026432;28;20109;-66
2023/12/24 13:37:02;;;;;;;127.00;65.70;;;;;;;;;;5034997;28;20057;-65
2023/12/24 13:39:29;;;;;;;123.28;60.63;;;;;;;;;;5038721;28;20025;-66
2023/12/24 13:41:56;;;;;;;105.95;53.35;;;;;;;;;;5041481;28;20018;-71
2023/12/24 13:44:21;;;;;;;106.53;52.92;;;;;;;;;;5046839;28;20025;-69
2023/12/24 13:46:48;;;;;;;101.25;51.72;;;;;;;;;;5045458;28;20386;-66
2023/12/24 13:49:14;;;;;;;105.28;53.67;;;;;;;;;;5043946;28;20416;-66
2023/12/24 13:51:40;;;;;;;105.82;50.95;;;;;;;;;;5032259;28;20525;-67
2023/12/24 13:54:06;;;;;;;98.90;50.42;;;;;;;;;;5030807;28;20502;-66
2023/12/24 13:56:35;;;;;;;105.60;49.70;;;;;;;;;;5027979;28;20053;-67
2023/12/24 13:59:01;;;;;;;96.25;49.58;;;;;;;;;;5032231;28;20017;-66
2023/12/24 14:01:27;;;;;;;102.15;51.38;;;;;;;;;;5032087;28;20029;-69
2023/12/24 14:03:53;;;;;;;92.60;48.45;;;;;;;;;;5031874;28;20026;-69
2023/12/24 14:06:19;;;;;;;90.38;46.03;;;;;;;;;;5032037;28;20033;-68
2023/12/24 14:08:45;;;;;;;92.43;47.42;;;;;;;;;;5032798;28;20056;-70
2023/12/24 14:11:11;;;;;;;96.35;47.05;;;;;;;;;;5031071;28;20017;-68
2023/12/24 14:13:37;;;;;;;87.43;45.08;;;;;;;;;;5031969;28;20124;-68
2023/12/24 14:16:03;;;;;;;85.30;44.60;;;;;;;;;;5031325;28;20030;-66
2023/12/24 14:18:29;;;;;;;89.93;45.38;;;;;;;;;;5031401;28;20021;-65
2023/12/24 14:20:55;;;;;;;87.20;43.97;;;;;;;;;;5031245;28;20056;-66
2023/12/24 14:23:21;;;;;;;87.75;42.60;;;;;;;;;;5030979;28;20053;-63
2023/12/24 14:25:47;;;;;;;95.18;43.38;;;;;;;;;;5031210;28;20021;-63